Time;durP1;ratioP1;P1;durP2;ratioP2;P2;SDS_P1;SDS_P2;PMS_P1;PMS_P2;Temp;Humidity;BMP_temperature;BMP_pressure;BME280_temperature;BME280_humidity;BME280_pressure;Samples;Min_cycle;Max_cycle;Signal;HPM_P1;HPM_P2
2023/04/29 00:00:14;;;;;;;2.40;1.17;;;;;;;8.04;46.45;100454.53;1774431;79;21087;-59
2023/04/29 00:02:44;;;;;;;3.25;1.15;;;;;;;8.01;46.72;100460.35;1774692;80;21111;-58
2023/04/29 00:05:13;;;;;;;4.17;1.40;;;;;;;7.99;46.96;100456.95;1774684;81;21155;-58
2023/04/29 00:07:44;;;;;;;3.90;1.20;;;;;;;7.94;47.18;100458.34;1774487;80;21103;-58
2023/04/29 00:10:13;;;;;;;3.98;1.15;;;;;;;7.93;47.63;100457.16;1774573;80;21531;-58
2023/04/29 00:12:42;;;;;;;2.90;1.27;;;;;;;7.90;47.83;100458.88;1774404;80;21084;-60
2023/04/29 00:15:12;;;;;;;2.95;1.00;;;;;;;7.88;47.91;100460.42;1774579;81;21194;-57
2023/04/29 00:17:41;;;;;;;1.70;1.05;;;;;;;7.87;48.01;100464.17;1774878;79;21131;-58
2023/04/29 00:20:11;;;;;;;2.70;1.20;;;;;;;7.86;48.12;100458.38;1774423;81;21154;-57
2023/04/29 00:22:40;;;;;;;2.50;1.27;;;;;;;7.84;48.62;100461.81;1774753;79;21127;-57
2023/04/29 00:25:11;;;;;;;3.62;1.05;;;;;;;7.78;48.83;100460.27;1774300;81;21111;-58
2023/04/29 00:27:40;;;;;;;3.55;1.20;;;;;;;7.72;49.01;100452.30;1774649;81;21096;-57
2023/04/29 00:30:11;;;;;;;2.40;1.27;;;;;;;7.71;49.17;100450.59;1774403;81;21536;-56
2023/04/29 00:32:43;;;;;;;4.25;1.20;;;;;;;7.69;49.27;100454.53;1774621;81;21159;-57
2023/04/29 00:35:12;;;;;;;4.05;1.10;;;;;;;7.68;49.67;100451.46;1774334;80;21079;-57
2023/04/29 00:37:42;;;;;;;4.25;1.30;;;;;;;7.64;49.85;100446.87;1774491;81;21119;-57
2023/04/29 00:40:13;;;;;;;4.12;1.20;;;;;;;7.62;50.05;100445.69;1774560;81;21083;-58
2023/04/29 00:42:42;;;;;;;3.15;1.20;;;;;;;7.60;50.54;100449.11;1774356;81;21567;-58
2023/04/29 00:45:11;;;;;;;2.72;1.25;;;;;;;7.59;50.71;100450.65;1774661;81;21554;-57
2023/04/29 00:47:41;;;;;;;2.12;1.17;;;;;;;7.58;50.76;100454.41;1774775;80;21103;-57
2023/04/29 00:50:11;;;;;;;3.58;1.20;;;;;;;7.58;50.80;100453.04;1774406;80;21195;-57
2023/04/29 00:52:41;;;;;;;2.80;1.10;;;;;;;7.58;50.83;100452.53;1774484;79;21132;-57
2023/04/29 00:55:11;;;;;;;5.25;1.32;;;;;;;7.57;51.07;100452.70;1774617;81;21107;-57
2023/04/29 00:57:41;;;;;;;2.37;1.20;;;;;;;7.55;51.17;100454.25;1764001;81;21115;-58
2023/04/29 01:00:12;;;;;;;3.05;1.10;;;;;;;7.54;51.49;100453.91;1774751;79;21108;-58
2023/04/29 01:02:42;;;;;;;2.77;1.30;;;;;;;7.53;51.78;100456.81;1774679;79;21103;-58
2023/04/29 01:05:12;;;;;;;1.55;1.10;;;;;;;7.51;51.86;100462.95;1763982;81;21143;-58
2023/04/29 01:08:06;;;;;;;2.70;1.00;;;;;;;7.49;52.03;100460.92;1774474;80;21565;-57
2023/04/29 01:11:01;;;;;;;3.67;1.50;;;;;;;7.47;52.27;100467.91;1774637;81;21119;-57
2023/04/29 01:13:38;;;;;;;3.77;1.60;;;;;;;7.47;52.67;100461.61;1774526;80;21100;-57
2023/04/29 01:16:13;;;;;;;2.60;1.20;;;;;;;7.43;53.01;100461.11;1774362;80;21128;-58
2023/04/29 01:18:45;;;;;;;3.52;1.47;;;;;;;7.39;53.18;100463.00;1772025;79;21606;-58
2023/04/29 01:21:16;;;;;;;2.20;1.50;;;;;;;7.37;53.17;100463.17;1774406;79;21170;-58
2023/04/29 01:23:45;;;;;;;1.92;1.12;;;;;;;7.36;53.41;100461.48;1763765;81;21104;-57
2023/04/29 01:26:16;;;;;;;3.02;1.30;;;;;;;7.36;53.40;100470.16;1774811;81;21139;-58
2023/04/29 01:28:54;;;;;;;20.90;2.10;;;;;;;7.36;53.48;100466.92;1762247;81;21155;-58
2023/04/29 01:31:47;;;;;;;4.55;2.00;;;;;;;7.35;53.69;100475.28;1774756;81;21151;-58
2023/04/29 01:34:31;;;;;;;3.12;1.55;;;;;;;7.30;53.81;100481.25;1765332;81;21194;-58
2023/04/29 01:37:08;;;;;;;4.10;1.70;;;;;;;7.26;53.95;100474.45;1780166;79;21111;-57
2023/04/29 01:40:00;;;;;;;3.37;1.65;;;;;;;7.24;54.06;100482.80;1788050;80;21135;-58
2023/04/29 01:42:46;;;;;;;6.75;1.85;;;;;;;7.22;54.23;100475.31;1788273;80;21146;-58
2023/04/29 01:45:17;;;;;;;7.65;2.22;;;;;;;7.20;54.28;100480.60;1788345;80;21134;-57
2023/04/29 01:47:46;;;;;;;7.05;2.52;;;;;;;7.20;54.41;100488.77;1788615;80;21585;-57
2023/04/29 01:50:16;;;;;;;7.87;2.40;;;;;;;7.19;54.32;100486.56;1788242;80;21527;-57
2023/04/29 01:52:45;;;;;;;8.20;2.75;;;;;;;7.18;54.35;100492.19;1788239;80;21115;-57
2023/04/29 01:55:15;;;;;;;9.70;3.25;;;;;;;7.13;54.41;100495.91;1788255;80;21127;-58
2023/04/29 01:57:47;;;;;;;6.97;2.90;;;;;;;7.09;54.58;100497.28;1787668;80;21107;-58
2023/04/29 02:00:21;;;;;;;9.65;3.15;;;;;;;7.06;54.75;100501.20;1786610;80;21223;-58
2023/04/29 02:02:51;;;;;;;7.30;2.65;;;;;;;7.05;54.75;100506.82;1788571;79;21107;-57
2023/04/29 02:05:22;;;;;;;9.25;2.62;;;;;;;7.04;54.87;100505.97;1785297;80;21553;-58
2023/04/29 02:07:56;;;;;;;7.30;2.60;;;;;;;7.03;54.97;100503.42;1788245;80;21123;-57
2023/04/29 02:10:26;;;;;;;7.62;2.60;;;;;;;7.01;55.08;100506.31;1788400;80;21134;-58
2023/04/29 02:12:58;;;;;;;6.28;2.45;;;;;;;6.97;55.12;100505.81;1786981;80;21155;-57
2023/04/29 02:15:27;;;;;;;4.80;2.10;;;;;;;6.94;55.23;100500.70;1788244;79;21131;-57
2023/04/29 02:17:56;;;;;;;4.12;2.10;;;;;;;6.92;55.33;100512.80;1788026;80;21143;-57
2023/04/29 02:20:26;;;;;;;4.90;2.22;;;;;;;6.88;55.48;100505.98;1788289;80;21150;-58
2023/04/29 02:22:57;;;;;;;4.17;2.20;;;;;;;6.88;55.46;100509.56;1788322;80;21531;-57
2023/04/29 02:25:27;;;;;;;4.50;1.95;;;;;;;6.85;55.43;100503.61;1788270;80;21120;-58
2023/04/29 02:27:57;;;;;;;4.00;1.77;;;;;;;6.82;55.56;100505.31;1788709;80;21111;-58
2023/04/29 02:30:26;;;;;;;6.75;2.05;;;;;;;6.79;55.59;100497.48;1789459;80;21581;-57
2023/04/29 02:32:56;;;;;;;10.03;2.22;;;;;;;6.77;55.63;100505.83;1789373;80;21119;-58
2023/04/29 02:35:25;;;;;;;4.10;1.80;;;;;;;6.75;55.69;100510.59;1789536;79;21165;-57
2023/04/29 02:37:56;;;;;;;4.78;1.98;;;;;;;6.72;55.83;100510.93;1788809;80;21098;-57
2023/04/29 02:40:25;;;;;;;5.45;2.10;;;;;;;6.71;55.98;100519.27;1788247;80;21162;-58
2023/04/29 02:42:55;;;;;;;8.00;2.30;;;;;;;6.67;56.00;100523.70;1788060;80;21210;-58
2023/04/29 02:45:24;;;;;;;12.40;2.40;;;;;;;6.63;56.15;100525.05;1788220;79;21173;-58
2023/04/29 02:47:53;;;;;;;4.62;2.02;;;;;;;6.60;56.29;100532.20;1788111;79;21114;-57
2023/04/29 02:50:24;;;;;;;12.53;2.42;;;;;;;6.61;56.37;100528.97;1788443;79;21507;-56
2023/04/29 02:52:54;;;;;;;6.03;2.20;;;;;;;6.60;56.58;100532.20;1788335;80;21201;-57
2023/04/29 02:55:23;;;;;;;9.23;1.90;;;;;;;6.58;56.75;100530.16;1788178;79;21549;-56
2023/04/29 02:57:52;;;;;;;5.12;2.25;;;;;;;6.55;56.90;100539.17;1788321;80;21107;-57
2023/04/29 03:00:22;;;;;;;5.47;1.95;;;;;;;6.54;57.03;100537.47;1788329;80;21111;-58
2023/04/29 03:02:51;;;;;;;6.60;1.90;;;;;;;6.54;57.04;100538.83;1788275;80;21146;-58
2023/04/29 03:05:19;;;;;;;4.53;2.08;;;;;;;6.54;57.20;100544.27;1788650;80;21198;-56
2023/04/29 03:07:48;;;;;;;4.58;1.87;;;;;;;6.52;57.24;100549.03;1788068;80;21145;-58
2023/04/29 03:10:18;;;;;;;4.25;2.27;;;;;;;6.51;57.31;100552.27;1788385;80;21499;-58
2023/04/29 03:12:47;;;;;;;8.38;2.30;;;;;;;6.47;57.42;100553.59;1788463;79;22151;-58
2023/04/29 03:15:18;;;;;;;6.10;2.47;;;;;;;6.47;57.64;100556.81;1788401;80;21103;-58
2023/04/29 03:17:47;;;;;;;5.30;2.25;;;;;;;6.41;57.77;100555.61;1788399;80;21142;-57
2023/04/29 03:20:16;;;;;;;12.30;2.27;;;;;;;6.39;57.94;100564.97;1788195;80;21142;-58
2023/04/29 03:22:45;;;;;;;6.33;2.08;;;;;;;6.35;58.12;100565.30;1788289;80;21134;-57
2023/04/29 03:25:14;;;;;;;5.87;2.20;;;;;;;6.35;58.20;100565.81;1788236;80;21379;-57
2023/04/29 03:27:44;;;;;;;8.28;2.70;;;;;;;6.38;58.25;100573.64;1788479;80;21111;-57
2023/04/29 03:30:13;;;;;;;5.67;2.42;;;;;;;6.41;58.30;100573.81;1788505;80;21115;-57
2023/04/29 03:32:44;;;;;;;4.55;2.30;;;;;;;6.44;58.44;100577.56;1787770;80;21165;-58
2023/04/29 03:35:13;;;;;;;7.75;2.37;;;;;;;6.43;58.48;100580.80;1788183;80;21158;-57
2023/04/29 03:37:46;;;;;;;6.47;2.12;;;;;;;6.43;58.63;100576.72;1786628;80;21142;-58
2023/04/29 03:40:18;;;;;;;7.55;3.60;;;;;;;6.43;58.82;100584.88;1788087;80;21079;-58
2023/04/29 03:42:48;;;;;;;6.40;3.08;;;;;;;6.43;58.91;100584.88;1788233;80;21122;-58
2023/04/29 03:45:18;;;;;;;6.90;2.60;;;;;;;6.46;59.04;100591.34;1788076;80;21158;-57
2023/04/29 03:47:49;;;;;;;6.15;2.90;;;;;;;6.49;59.05;100586.08;1788235;80;21134;-58
2023/04/29 03:50:18;;;;;;;6.12;2.22;;;;;;;6.52;59.16;100588.50;1788208;80;21142;-57
2023/04/29 03:52:47;;;;;;;7.33;2.47;;;;;;;6.55;59.27;100589.53;1788365;80;21146;-56
2023/04/29 03:55:18;;;;;;;5.58;2.55;;;;;;;6.56;59.27;100588.00;1788591;80;21115;-57
2023/04/29 03:57:49;;;;;;;7.35;2.80;;;;;;;6.60;59.38;100589.37;1788124;80;21215;-59
2023/04/29 04:00:19;;;;;;;5.70;2.50;;;;;;;6.66;59.43;100600.95;1788186;80;21107;-57
2023/04/29 04:02:50;;;;;;;7.42;2.42;;;;;;;6.71;59.45;100592.79;1788259;80;21111;-57
2023/04/29 04:05:24;;;;;;;12.95;2.60;;;;;;;6.77;59.42;100594.33;1788291;80;21138;-55
2023/04/29 04:07:54;;;;;;;10.28;2.67;;;;;;;6.83;59.41;100598.25;1788267;80;21154;-57
2023/04/29 04:10:31;;;;;;;;;;;;;;;6.86;59.47;100593.83;1788965;80;21163;-58
2023/04/29 04:13:01;;;;;;;5.10;2.70;;;;;;;6.92;59.55;100597.23;1788372;80;20509;-56
2023/04/29 04:15:29;;;;;;;10.35;3.20;;;;;;;6.94;59.61;100594.68;1788412;80;21617;-58
2023/04/29 04:18:00;;;;;;;6.40;2.70;;;;;;;7.01;59.65;100596.22;1788120;80;21151;-58
2023/04/29 04:20:30;;;;;;;6.42;2.60;;;;;;;7.09;59.58;100598.94;1788443;80;21147;-57
2023/04/29 04:22:59;;;;;;;7.22;2.60;;;;;;;7.17;59.50;100597.61;1788237;80;21556;-58
2023/04/29 04:25:30;;;;;;;8.45;2.58;;;;;;;7.21;59.54;100607.14;1788167;80;21146;-58
2023/04/29 04:28:01;;;;;;;4.62;2.60;;;;;;;7.27;59.74;100595.56;1787452;80;21526;-58
2023/04/29 04:30:32;;;;;;;8.60;2.45;;;;;;;7.34;59.66;100591.63;1786441;80;21048;-58
2023/04/29 04:33:01;;;;;;;6.00;2.40;;;;;;;7.42;59.57;100601.67;1788125;80;21031;-58
2023/04/29 04:35:33;;;;;;;5.08;2.20;;;;;;;7.50;59.54;100607.11;1788253;80;20991;-59
2023/04/29 04:38:02;;;;;;;4.90;1.90;;;;;;;7.56;59.31;100603.70;1781975;80;21064;-57
2023/04/29 04:40:32;;;;;;;6.80;2.10;;;;;;;7.67;59.04;100601.11;1774610;79;21040;-58
2023/04/29 04:43:07;;;;;;;4.30;1.40;;;;;;;7.77;58.59;100598.53;1773367;80;21024;-57
2023/04/29 04:45:37;;;;;;;3.40;1.55;;;;;;;7.90;57.58;100596.13;1774187;80;21444;-58
2023/04/29 04:48:07;;;;;;;3.55;1.60;;;;;;;8.05;57.29;100598.12;1763625;81;21062;-58
2023/04/29 04:50:38;;;;;;;4.17;1.70;;;;;;;8.17;56.80;100602.17;1774487;81;21095;-58
2023/04/29 04:53:07;;;;;;;4.15;1.75;;;;;;;8.24;56.10;100597.19;1774452;81;21012;-57
2023/04/29 04:55:42;;;;;;;3.45;1.70;;;;;;;8.32;56.04;100600.39;1774536;80;21009;-57
2023/04/29 04:58:13;;;;;;;4.78;1.60;;;;;;;8.41;55.95;100598.50;1774346;81;21464;-60
2023/04/29 05:00:46;;;;;;;2.72;1.52;;;;;;;8.49;55.72;100599.34;1774638;81;20988;-58
2023/04/29 05:03:16;;;;;;;5.08;1.80;;;;;;;8.58;55.16;100604.23;1774675;81;21091;-59
2023/04/29 05:05:48;;;;;;;3.77;1.95;;;;;;;8.66;54.79;100595.14;1774445;81;21004;-58
2023/04/29 05:08:17;;;;;;;4.33;1.98;;;;;;;8.72;54.26;100595.78;1739676;81;21063;-57
2023/04/29 05:10:46;;;;;;;3.42;1.50;;;;;;;8.78;54.33;100601.89;1774390;79;20988;-58
2023/04/29 05:13:17;;;;;;;2.95;1.45;;;;;;;8.85;54.13;100594.67;1774586;80;21474;-59
2023/04/29 05:15:46;;;;;;;5.78;1.30;;;;;;;8.90;53.09;100597.19;1774463;81;21009;-58
2023/04/29 05:18:17;;;;;;;2.62;1.30;;;;;;;8.94;51.74;100594.09;1774377;80;21016;-60
2023/04/29 05:20:46;;;;;;;3.05;1.25;;;;;;;8.99;50.79;100598.49;1774461;81;21032;-57
2023/04/29 05:23:15;;;;;;;5.15;1.20;;;;;;;9.04;50.00;100595.55;1774326;79;21953;-57
2023/04/29 05:25:45;;;;;;;3.50;1.00;;;;;;;9.09;49.14;100597.21;1763529;81;21016;-57
2023/04/29 05:28:18;;;;;;;3.22;0.90;;;;;;;9.13;47.72;100606.78;1774421;81;21047;-58
2023/04/29 05:30:52;;;;;;;2.75;1.12;;;;;;;9.15;46.45;100603.34;1774401;81;21436;-59
2023/04/29 05:33:21;;;;;;;3.33;1.20;;;;;;;9.17;46.05;100601.27;1763858;81;21021;-59
2023/04/29 05:35:51;;;;;;;1.77;0.75;;;;;;;9.20;45.71;100607.74;1774448;81;21000;-58
2023/04/29 05:38:20;;;;;;;2.90;1.10;;;;;;;9.24;45.62;100610.11;1774772;80;20984;-61
2023/04/29 05:40:52;;;;;;;3.77;0.80;;;;;;;9.27;45.44;100605.64;1774019;80;21079;-58
2023/04/29 05:43:41;;;;;;;2.10;1.00;;;;;;;9.26;45.21;100606.67;1733665;83;21199;-57
2023/04/29 05:46:09;;;;;;;2.15;0.90;;;;;;;9.27;45.17;100609.22;1733494;83;21531;-57
2023/04/29 05:48:40;;;;;;;2.22;1.00;;;;;;;9.30;44.64;100608.00;1749287;80;21044;-58
2023/04/29 05:51:13;;;;;;;3.08;0.78;;;;;;;9.31;44.53;100608.34;1774405;81;21008;-59
2023/04/29 05:53:43;;;;;;;1.85;0.98;;;;;;;9.34;44.41;100603.87;1774687;81;21036;-58
2023/04/29 05:56:16;;;;;;;2.25;0.93;;;;;;;9.36;44.19;100602.64;1774520;81;21000;-59
2023/04/29 05:58:46;;;;;;;3.10;1.00;;;;;;;9.38;43.71;100606.56;1774838;80;21462;-59
2023/04/29 06:01:16;;;;;;;4.80;1.10;;;;;;;9.43;43.77;100613.70;1774597;80;21048;-60
2023/04/29 06:03:46;;;;;;;3.42;1.15;;;;;;;9.45;42.74;100614.36;1775018;81;21080;-59
2023/04/29 06:06:34;;;;;;;3.95;1.20;;;;;;;9.44;43.10;100612.66;1774962;80;21008;-57
2023/04/29 06:09:14;;;;;;;;;;;;;;;9.44;43.10;100619.50;1757143;80;21090;-58
2023/04/29 06:11:46;;;;;;;4.17;1.00;;;;;;;9.42;42.89;100615.58;1774366;79;20501;-58
2023/04/29 06:14:16;;;;;;;2.50;0.90;;;;;;;9.38;42.50;100612.03;1774777;79;21074;-56
2023/04/29 06:16:45;;;;;;;3.70;1.07;;;;;;;9.35;42.58;100613.77;1774613;81;21012;-58
2023/04/29 06:19:15;;;;;;;2.58;0.93;;;;;;;9.36;42.75;100616.32;1774410;81;21027;-58
2023/04/29 06:21:48;;;;;;;2.45;0.80;;;;;;;9.39;42.66;100611.84;1774471;81;21005;-58
2023/04/29 06:24:17;;;;;;;1.77;0.82;;;;;;;9.49;42.62;100618.42;1774654;80;21521;-59
2023/04/29 06:26:47;;;;;;;3.98;1.10;;;;;;;9.63;42.20;100617.59;1774517;81;21444;-58
2023/04/29 06:29:17;;;;;;;2.52;1.00;;;;;;;9.92;41.83;100615.96;1774406;81;21048;-58
2023/04/29 06:31:47;;;;;;;3.87;0.90;;;;;;;10.36;41.18;100621.45;1774431;81;20996;-59
2023/04/29 06:34:16;;;;;;;1.45;0.78;;;;;;;10.92;39.54;100618.97;1774392;80;21004;-58
2023/04/29 06:36:47;;;;;;;2.52;1.07;;;;;;;11.50;39.21;100616.49;1773564;79;21028;-57
2023/04/29 06:39:22;;;;;;;2.08;0.93;;;;;;;12.02;38.00;100606.48;1770706;79;21032;-58
2023/04/29 06:41:57;;;;;;;1.42;0.80;;;;;;;12.61;37.22;100605.94;1773215;80;21048;-57
2023/04/29 06:44:46;;;;;;;2.20;0.90;;;;;;;13.11;36.55;100605.67;1774833;79;21380;-59
2023/04/29 06:47:16;;;;;;;2.67;1.25;;;;;;;13.53;35.22;100601.70;1773594;80;21008;-58
2023/04/29 06:49:47;;;;;;;1.40;0.70;;;;;;;13.87;34.24;100606.16;1774083;80;21013;-57
2023/04/29 06:52:18;;;;;;;2.05;0.90;;;;;;;14.23;33.94;100602.36;1774420;81;21480;-59
2023/04/29 06:54:50;;;;;;;2.80;1.10;;;;;;;14.59;32.37;100603.23;1774427;79;21028;-58
2023/04/29 06:57:20;;;;;;;2.52;1.05;;;;;;;14.90;31.65;100601.06;1774290;79;21521;-58
2023/04/29 06:59:50;;;;;;;8.95;1.40;;;;;;;15.23;30.40;100609.16;1774364;81;21048;-58
2023/04/29 07:02:20;;;;;;;1.92;0.82;;;;;;;15.43;30.82;100611.77;1774376;81;21036;-59
2023/04/29 07:04:51;;;;;;;8.25;1.25;;;;;;;15.70;29.32;100615.75;1774497;81;21187;-57
2023/04/29 07:07:22;;;;;;;1.92;0.80;;;;;;;16.02;28.28;100614.59;1774616;81;21005;-57
2023/04/29 07:09:53;;;;;;;1.62;0.80;;;;;;;16.25;27.65;100610.30;1774596;80;21021;-59
2023/04/29 07:12:23;;;;;;;2.12;0.80;;;;;;;16.37;27.05;100604.34;1774374;79;21000;-58
2023/04/29 07:14:54;;;;;;;6.75;1.50;;;;;;;16.46;27.33;100609.87;1774481;80;21028;-57
2023/04/29 07:17:22;;;;;;;3.22;1.17;;;;;;;16.63;26.42;100611.47;1774590;81;21412;-58
2023/04/29 07:19:52;;;;;;;10.40;1.40;;;;;;;16.88;26.50;100601.16;1774579;80;21478;-58
2023/04/29 07:22:21;;;;;;;2.02;0.70;;;;;;;17.19;26.29;100602.86;1774712;80;20996;-56
2023/04/29 07:24:56;;;;;;;2.70;0.98;;;;;;;17.44;24.91;100604.07;1774732;80;21016;-57
2023/04/29 07:27:26;;;;;;;3.15;0.98;;;;;;;17.52;23.90;100594.56;1774453;80;21009;-57
2023/04/29 07:29:55;;;;;;;6.87;1.10;;;;;;;17.35;24.50;100602.73;1774407;80;21079;-58
2023/04/29 07:32:24;;;;;;;2.52;1.05;;;;;;;17.37;24.37;100604.17;1763625;79;21020;-59
2023/04/29 07:34:53;;;;;;;2.52;0.82;;;;;;;17.57;23.82;100603.88;1774423;80;20977;-59
2023/04/29 07:37:26;;;;;;;2.10;0.98;;;;;;;17.68;23.61;100608.62;1774469;79;21032;-59
2023/04/29 07:39:58;;;;;;;1.40;0.90;;;;;;;17.85;23.22;100598.21;1785735;79;21027;-59
2023/04/29 07:42:29;;;;;;;3.10;0.95;;;;;;;17.91;23.25;100603.64;1771117;80;21439;-59
2023/04/29 07:45:00;;;;;;;10.00;1.40;;;;;;;18.01;23.50;100595.56;1788370;80;21039;-58
2023/04/29 07:47:30;;;;;;;1.17;0.90;;;;;;;17.99;23.44;100592.72;1788400;80;21478;-57
2023/04/29 07:49:59;;;;;;;3.92;1.30;;;;;;;18.00;23.40;100593.87;1788365;80;21476;-59
2023/04/29 07:52:28;;;;;;;2.33;1.10;;;;;;;18.09;22.59;100589.34;1786107;80;21007;-60
2023/04/29 07:54:58;;;;;;;5.20;1.50;;;;;;;18.26;22.24;100593.09;1780848;80;21075;-59
2023/04/29 07:57:28;;;;;;;6.22;1.40;;;;;;;18.26;22.47;100587.00;1757022;80;21023;-60
2023/04/29 07:59:57;;;;;;;3.98;1.10;;;;;;;18.23;22.17;100593.58;1757574;80;21081;-59
2023/04/29 08:02:26;;;;;;;1.70;0.90;;;;;;;18.14;23.64;100584.75;1771071;80;21024;-59
2023/04/29 08:05:01;;;;;;;0.98;0.70;;;;;;;18.07;22.86;100585.42;1719542;83;21037;-56
2023/04/29 08:07:31;;;;;;;1.95;0.90;;;;;;;18.07;22.81;100577.11;1719359;83;21024;-58
2023/04/29 08:10:01;;;;;;;2.10;0.85;;;;;;;18.15;22.38;100580.05;1717238;83;21083;-56
2023/04/29 08:12:30;;;;;;;2.77;1.00;;;;;;;18.34;22.72;100591.33;1692303;85;21614;-58
2023/04/29 08:14:59;;;;;;;5.08;1.15;;;;;;;18.60;22.53;100599.10;1692260;85;21072;-58
2023/04/29 08:17:28;;;;;;;3.47;1.10;;;;;;;18.56;21.83;100580.41;1692466;83;21033;-57
2023/04/29 08:19:57;;;;;;;2.20;1.00;;;;;;;18.59;21.47;100577.98;1692146;84;21033;-58
2023/04/29 08:22:26;;;;;;;2.72;1.10;;;;;;;18.60;21.65;100581.06;1692195;84;21006;-58
2023/04/29 08:24:55;;;;;;;4.00;1.02;;;;;;;18.48;21.55;100576.64;1692176;85;21029;-57
2023/04/29 08:27:24;;;;;;;2.20;0.80;;;;;;;18.33;21.63;100594.64;1698129;83;21051;-58
2023/04/29 08:29:53;;;;;;;3.45;1.10;;;;;;;18.31;21.64;100572.40;1719631;83;21063;-57
2023/04/29 08:32:22;;;;;;;3.25;0.93;;;;;;;18.18;21.72;100576.25;1719634;83;21471;-58
2023/04/29 08:34:51;;;;;;;3.62;0.85;;;;;;;18.24;22.28;100570.30;1719374;83;21064;-59
2023/04/29 08:37:21;;;;;;;1.98;0.90;;;;;;;18.33;21.91;100571.61;1719424;83;21031;-57
2023/04/29 08:39:49;;;;;;;1.50;0.95;;;;;;;18.31;22.06;100564.91;1715767;83;21083;-59
2023/04/29 08:42:22;;;;;;;2.42;1.05;;;;;;;18.37;21.86;100563.09;1714062;84;21487;-58
2023/04/29 08:44:51;;;;;;;1.60;0.95;;;;;;;18.37;22.17;100579.20;1780820;80;21015;-58
2023/04/29 08:47:20;;;;;;;1.50;0.90;;;;;;;18.45;22.22;100564.09;1750637;80;21525;-58
2023/04/29 08:49:48;;;;;;;2.67;1.12;;;;;;;18.39;22.44;100570.62;1714195;83;21055;-58
2023/04/29 08:52:17;;;;;;;2.72;1.00;;;;;;;18.46;22.17;100578.27;1780737;80;21003;-58
2023/04/29 08:54:46;;;;;;;1.92;1.00;;;;;;;18.50;21.51;100575.30;1780677;80;21444;-58
2023/04/29 08:57:15;;;;;;;2.10;0.95;;;;;;;18.41;21.81;100573.16;1780630;80;21063;-57
2023/04/29 08:59:45;;;;;;;2.65;1.10;;;;;;;18.30;21.62;100578.48;1780798;80;21439;-59
2023/04/29 09:02:16;;;;;;;4.95;1.00;;;;;;;18.10;21.82;100575.23;1765933;80;21088;-57
2023/04/29 09:04:54;;;;;;;2.95;0.90;;;;;;;18.02;22.39;100569.52;1751319;82;21072;-58
2023/04/29 09:07:24;;;;;;;2.35;0.93;;;;;;;17.89;21.74;100573.08;1751559;81;21045;-58
2023/04/29 09:09:54;;;;;;;3.02;0.98;;;;;;;17.62;21.96;100571.30;1751602;81;21062;-58
2023/04/29 09:12:23;;;;;;;2.40;1.20;;;;;;;17.39;22.62;100573.47;1751540;80;21015;-58
2023/04/29 09:14:54;;;;;;;2.60;1.10;;;;;;;17.27;24.02;100570.67;1751629;80;21065;-56
2023/04/29 09:17:45;;;;;;;3.20;1.07;;;;;;;17.13;24.34;100576.66;1751777;82;21022;-57
2023/04/29 09:20:26;;;;;;;2.08;0.85;;;;;;;16.99;23.86;100569.94;1751598;82;21461;-57
2023/04/29 09:23:02;;;;;;;1.82;0.80;;;;;;;16.81;24.06;100574.11;1751412;81;21045;-57
2023/04/29 09:25:31;;;;;;;1.32;0.82;;;;;;;16.55;24.02;100559.23;1751937;80;21053;-57
2023/04/29 09:28:16;;;;;;;2.00;0.80;;;;;;;16.28;23.92;100561.48;1751842;82;21053;-59
2023/04/29 09:30:49;;;;;;;3.40;0.95;;;;;;;16.14;23.40;100568.52;1751775;81;21057;-58
2023/04/29 09:33:18;;;;;;;1.77;0.80;;;;;;;16.01;24.72;100563.68;1751460;80;21049;-56
2023/04/29 09:35:47;;;;;;;2.58;0.98;;;;;;;15.95;25.93;100562.69;1751951;82;21009;-58
2023/04/29 09:38:16;;;;;;;1.75;0.70;;;;;;;15.95;25.92;100559.92;1751657;82;20989;-58
2023/04/29 09:40:45;;;;;;;2.55;1.00;;;;;;;15.93;26.60;100562.60;1751606;81;21137;-57
2023/04/29 09:43:17;;;;;;;2.10;1.10;;;;;;;15.76;27.21;100568.72;1750318;81;21061;-59
2023/04/29 09:45:47;;;;;;;2.15;1.10;;;;;;;15.65;27.04;100559.80;1751791;80;21033;-57
2023/04/29 09:48:17;;;;;;;3.25;1.00;;;;;;;15.58;27.06;100552.08;1751965;80;21068;-57
2023/04/29 09:51:02;;;;;;;2.00;0.82;;;;;;;15.55;26.81;100558.03;1751820;82;21001;-57
2023/04/29 09:53:36;;;;;;;3.12;0.90;;;;;;;15.49;26.36;100558.39;1751718;82;20993;-56
2023/04/29 09:56:04;;;;;;;2.20;0.85;;;;;;;15.43;26.46;100556.54;1751471;81;21522;-57
2023/04/29 09:58:36;;;;;;;2.72;0.75;;;;;;;15.44;26.69;100551.33;1751837;82;21097;-58
2023/04/29 10:01:05;;;;;;;4.70;1.00;;;;;;;15.43;27.50;100548.25;1752444;80;21021;-58
2023/04/29 10:03:37;;;;;;;3.00;0.78;;;;;;;15.38;27.73;100544.48;1714100;84;21042;-58
2023/04/29 10:06:07;;;;;;;4.08;0.90;;;;;;;15.32;26.79;100546.77;1780818;80;21055;-57
2023/04/29 10:08:35;;;;;;;2.58;1.10;;;;;;;15.23;26.47;100536.53;1780701;80;21067;-57
2023/04/29 10:11:05;;;;;;;3.33;0.90;;;;;;;15.17;27.39;100541.58;1714078;84;21512;-58
2023/04/29 10:13:37;;;;;;;3.27;0.88;;;;;;;15.21;27.50;100538.14;1780577;80;21087;-57
2023/04/29 10:16:28;;;;;;;3.15;1.00;;;;;;;15.18;27.86;100528.93;1780857;80;21007;-57
2023/04/29 10:19:02;;;;;;;3.08;0.90;;;;;;;15.12;28.15;100533.13;1780814;80;21403;-57
2023/04/29 10:21:31;;;;;;;4.67;0.90;;;;;;;15.09;28.10;100521.15;1780857;80;21008;-61
2023/04/29 10:24:01;;;;;;;1.67;0.80;;;;;;;15.06;27.88;100528.50;1781155;80;21051;-58
2023/04/29 10:26:36;;;;;;;2.83;0.80;;;;;;;15.04;27.62;100518.22;1751330;80;21133;-57
2023/04/29 10:29:01;;;;;;;1.67;0.70;;;;;;;15.04;27.55;100527.34;1780261;80;20984;-56
2023/04/29 10:31:30;;;;;;;2.30;0.90;;;;;;;15.06;27.76;100522.45;1780808;80;21357;-57
2023/04/29 10:33:59;;;;;;;3.98;2.40;;;;;;;15.10;27.91;100522.31;1780929;80;21534;-56
2023/04/29 10:36:30;;;;;;;3.90;0.93;;;;;;;15.11;28.14;100516.25;1714003;84;22250;-58
2023/04/29 10:39:02;;;;;;;3.02;1.05;;;;;;;15.13;27.95;100506.67;1780579;80;21023;-58
2023/04/29 10:41:45;;;;;;;2.50;1.00;;;;;;;15.15;27.79;100500.39;1765451;81;20985;-58
2023/04/29 10:44:16;;;;;;;7.83;5.75;;;;;;;15.16;28.07;100509.52;1765363;81;20981;-58
2023/04/29 10:46:45;;;;;;;2.12;1.00;;;;;;;15.19;26.93;100509.92;1765538;81;21035;-58
2023/04/29 10:49:14;;;;;;;3.20;1.20;;;;;;;15.21;26.85;100502.79;1765527;81;21060;-55
2023/04/29 10:51:44;;;;;;;1.52;0.80;;;;;;;15.21;26.46;100496.73;1765860;81;21037;-58
2023/04/29 10:54:17;;;;;;;3.45;1.07;;;;;;;15.20;26.55;100506.62;1765330;81;21032;-56
2023/04/29 10:56:51;;;;;;;2.22;0.90;;;;;;;15.17;27.16;100510.67;1765395;81;21058;-54
2023/04/29 10:59:22;;;;;;;4.83;1.10;;;;;;;15.04;27.31;100497.52;1765527;81;21334;-56
2023/04/29 11:01:52;;;;;;;1.90;0.90;;;;;;;14.94;27.61;100497.99;1731926;82;21078;-56
2023/04/29 11:04:21;;;;;;;3.00;0.80;;;;;;;14.91;28.44;100510.32;1746743;82;21035;-55
2023/04/29 11:06:55;;;;;;;3.77;0.98;;;;;;;14.97;28.03;100500.88;1746972;82;21066;-57
2023/04/29 11:09:27;;;;;;;1.70;0.80;;;;;;;14.97;28.12;100498.11;1746973;81;21094;-55
2023/04/29 11:12:07;;;;;;;3.70;0.88;;;;;;;14.94;28.21;100484.73;1747144;82;21026;-57
2023/04/29 11:14:45;;;;;;;5.35;0.90;;;;;;;14.95;28.92;100498.30;1746703;82;21030;-57
2023/04/29 11:17:15;;;;;;;2.30;0.90;;;;;;;14.92;30.19;100469.78;1746698;82;21051;-56
2023/04/29 11:19:46;;;;;;;2.70;1.00;;;;;;;14.92;30.19;100469.78;1746945;81;21200;-55
2023/04/29 11:22:27;;;;;;;1.90;0.78;;;;;;;14.93;29.89;100473.39;1748140;81;21014;-58
2023/04/29 11:25:01;;;;;;;2.20;1.00;;;;;;;14.94;29.14;100466.27;1765775;81;21044;-56
2023/04/29 11:27:35;;;;;;;3.47;1.25;;;;;;;14.95;29.35;100472.62;1688110;85;21079;-56
2023/04/29 11:30:12;;;;;;;2.47;1.75;;;;;;;14.95;29.40;100475.39;1765486;80;21114;-58
2023/04/29 11:32:44;;;;;;;2.10;1.00;;;;;;;14.95;29.14;100472.09;1765436;81;21040;-58
2023/04/29 11:35:20;;;;;;;2.85;1.05;;;;;;;14.96;28.98;100469.67;1687826;85;21032;-57
2023/04/29 11:37:57;;;;;;;1.82;0.80;;;;;;;14.98;29.01;100465.31;1765435;81;21471;-56
2023/04/29 11:40:28;;;;;;;2.55;0.95;;;;;;;15.00;29.00;100476.97;1694979;81;21063;-58
2023/04/29 11:43:01;;;;;;;2.25;1.00;;;;;;;14.98;29.29;100461.17;1711807;83;21043;-57
2023/04/29 11:45:33;;;;;;;1.98;0.80;;;;;;;14.95;29.28;100460.21;1778138;81;21055;-58
2023/04/29 11:48:03;;;;;;;1.70;0.93;;;;;;;14.94;28.90;100451.09;1658033;84;21111;-57